createdAt,value
2023-01-13T00:02:21.981Z,75.94
2023-01-13T00:04:48.656Z,75.71
2023-01-13T00:07:15.229Z,75.58
2023-01-13T00:09:41.691Z,75.93
2023-01-13T00:12:08.212Z,75.81
2023-01-13T00:14:35.585Z,75.59
2023-01-13T00:17:03.689Z,76.36
2023-01-13T00:19:30.210Z,76.51
2023-01-13T00:21:56.709Z,75.34
2023-01-13T00:24:23.248Z,75.84
2023-01-13T00:26:49.771Z,76.13
2023-01-13T00:29:16.277Z,76.56
2023-01-13T00:31:42.744Z,76.73
2023-01-13T00:34:09.287Z,76.17
2023-01-13T00:36:35.745Z,77.12
2023-01-13T00:39:03.111Z,76.62
2023-01-13T00:41:50.015Z,77.34
2023-01-13T00:44:16.492Z,77.19
2023-01-13T00:46:43.057Z,77.34
2023-01-13T00:49:09.598Z,75.89
2023-01-13T00:51:36.107Z,76.04
2023-01-13T00:54:02.593Z,75.94
2023-01-13T00:56:39.600Z,76.59
2023-01-13T00:59:07.796Z,76.37
2023-01-13T01:01:34.444Z,76.58
2023-01-13T01:04:00.968Z,76.04
2023-01-13T01:06:28.023Z,76.43
2023-01-13T01:08:54.825Z,76.15
2023-01-13T01:11:23.514Z,76.23
2023-01-13T01:13:52.373Z,75.81
2023-01-13T01:16:20.206Z,76.78
2023-01-13T01:18:47.571Z,75.50
2023-01-13T01:21:14.206Z,76.50
2023-01-13T01:23:41.032Z,76.25
2023-01-13T01:26:11.048Z,76.39
2023-01-13T01:28:37.550Z,76.01
2023-01-13T01:31:08.471Z,76.41
2023-01-13T01:33:34.987Z,76.36
2023-01-13T01:36:02.357Z,75.73
2023-01-13T01:38:28.870Z,76.25
2023-01-13T01:40:55.335Z,75.79
2023-01-13T01:43:41.337Z,75.15
2023-01-13T01:46:07.770Z,75.28
2023-01-13T01:48:39.886Z,75.50
2023-01-13T01:51:09.108Z,75.98
2023-01-13T01:53:35.658Z,76.20
2023-01-13T01:56:02.158Z,76.23
2023-01-13T01:58:35.901Z,75.92
2023-01-13T02:01:02.455Z,76.65
2023-01-13T02:03:29.215Z,76.19
2023-01-13T02:05:55.717Z,75.91
2023-01-13T02:08:22.211Z,76.64
2023-01-13T02:10:50.844Z,77.25
2023-01-13T02:13:17.389Z,76.78
2023-01-13T02:16:03.058Z,77.21
2023-01-13T02:18:54.111Z,76.78
2023-01-13T02:21:49.615Z,76.96
2023-01-13T02:24:37.767Z,76.41
2023-01-13T02:27:38.212Z,75.60
2023-01-13T02:30:58.258Z,74.98
2023-01-13T02:33:39.322Z,75.08
2023-01-13T02:36:26.928Z,75.33
2023-01-13T02:39:28.778Z,74.38
2023-01-13T02:42:27.028Z,74.73
2023-01-13T02:45:00.870Z,74.35
2023-01-13T02:47:27.837Z,73.99
2023-01-13T02:49:56.335Z,73.26
2023-01-13T02:52:27.281Z,74.29
2023-01-13T02:54:58.824Z,74.34
2023-01-13T02:57:25.360Z,74.57
2023-01-13T02:59:53.180Z,73.63
2023-01-13T03:02:20.479Z,73.53
2023-01-13T03:04:55.041Z,73.37
2023-01-13T03:07:53.310Z,73.43
2023-01-13T03:10:52.284Z,73.94
2023-01-13T03:13:21.369Z,73.12
2023-01-13T03:16:16.705Z,73.68
2023-01-13T03:19:21.760Z,73.19
2023-01-13T03:21:59.254Z,73.16
2023-01-13T03:24:34.480Z,73.52
2023-01-13T03:27:15.734Z,73.76
2023-01-13T03:30:04.082Z,73.51
2023-01-13T03:32:41.386Z,72.30
2023-01-13T03:35:09.949Z,72.36
2023-01-13T03:37:39.623Z,73.35
2023-01-13T03:40:11.356Z,72.01
2023-01-13T03:42:37.840Z,72.25
2023-01-13T03:45:12.708Z,72.67
2023-01-13T03:47:49.995Z,72.67
2023-01-13T03:50:22.542Z,72.54
2023-01-13T03:52:51.695Z,72.61
2023-01-13T03:55:20.748Z,72.97
2023-01-13T03:58:09.692Z,72.42
2023-01-13T04:00:38.856Z,72.29
2023-01-13T04:03:10.713Z,72.31
2023-01-13T04:05:39.934Z,72.02
2023-01-13T04:08:12.445Z,72.38
2023-01-13T04:10:43.744Z,72.89
2023-01-13T04:13:16.266Z,72.01
2023-01-13T04:15:43.923Z,72.90
2023-01-13T04:18:17.498Z,73.05
2023-01-13T04:20:45.105Z,71.44
2023-01-13T04:23:13.462Z,71.71
2023-01-13T04:25:41.009Z,71.88
2023-01-13T04:28:07.692Z,71.54
2023-01-13T04:30:34.257Z,71.89
2023-01-13T04:33:00.762Z,71.98
2023-01-13T04:35:27.317Z,71.52
2023-01-13T04:37:53.857Z,71.48
2023-01-13T04:40:20.415Z,71.07
2023-01-13T04:42:46.973Z,70.05
2023-01-13T04:45:13.842Z,70.28
2023-01-13T04:47:41.903Z,70.58
2023-01-13T04:50:09.387Z,69.75
2023-01-13T04:52:35.871Z,71.02
2023-01-13T04:55:02.682Z,71.56
2023-01-13T04:57:29.358Z,70.54
2023-01-13T04:59:55.839Z,70.83
2023-01-13T05:02:22.494Z,71.22
2023-01-13T05:04:49.060Z,70.59
2023-01-13T05:07:15.830Z,70.04
2023-01-13T05:09:42.310Z,70.38
2023-01-13T05:12:28.111Z,70.32
2023-01-13T05:15:13.303Z,70.20
2023-01-13T05:17:39.815Z,69.87
2023-01-13T05:20:06.749Z,69.68
2023-01-13T05:22:51.832Z,70.26
2023-01-13T05:25:27.992Z,69.36
2023-01-13T05:27:56.117Z,69.13
2023-01-13T05:30:24.439Z,70.08
2023-01-13T05:32:50.908Z,69.38
2023-01-13T05:35:17.596Z,69.60
2023-01-13T05:37:44.677Z,69.91
2023-01-13T05:40:31.302Z,69.82
2023-01-13T05:43:25.538Z,69.49
2023-01-13T05:45:58.192Z,69.68
2023-01-13T05:48:27.481Z,69.79
2023-01-13T05:50:54.082Z,70.36
2023-01-13T05:53:21.148Z,69.51
2023-01-13T05:55:47.620Z,69.67
2023-01-13T05:58:14.934Z,69.10
2023-01-13T06:00:41.981Z,69.26
2023-01-13T06:03:08.675Z,68.49
2023-01-13T06:05:35.287Z,69.34
2023-01-13T06:08:03.740Z,69.39
2023-01-13T06:10:30.562Z,69.24
2023-01-13T06:12:57.139Z,68.74
2023-01-13T06:15:23.778Z,67.90
2023-01-13T06:17:50.341Z,68.85
2023-01-13T06:20:17.481Z,68.22
2023-01-13T06:22:48.866Z,69.05
2023-01-13T06:25:38.636Z,68.22
2023-01-13T06:28:05.230Z,68.45
2023-01-13T06:30:36.787Z,69.53
2023-01-13T06:33:03.545Z,69.27
2023-01-13T06:35:31.991Z,68.97
2023-01-13T06:37:58.905Z,68.79
2023-01-13T06:40:25.430Z,68.51
2023-01-13T06:43:11.190Z,69.75
2023-01-13T06:45:37.677Z,69.42
2023-01-13T06:48:04.347Z,69.38
2023-01-13T06:50:30.959Z,68.56
2023-01-13T06:52:57.552Z,68.59
2023-01-13T06:55:24.293Z,69.60
2023-01-13T06:57:55.380Z,68.96
2023-01-13T07:00:22.378Z,69.50
2023-01-13T07:02:49.119Z,69.02
2023-01-13T07:05:15.970Z,69.71
2023-01-13T07:07:42.477Z,69.58
2023-01-13T07:10:13.170Z,69.28
2023-01-13T07:12:58.726Z,68.88
2023-01-13T07:15:26.391Z,68.75
2023-01-13T07:17:53.171Z,69.45
2023-01-13T07:20:19.844Z,68.23
2023-01-13T07:22:46.388Z,68.82
2023-01-13T07:25:12.890Z,69.28
2023-01-13T07:27:39.552Z,69.03
2023-01-13T07:30:06.605Z,68.68
2023-01-13T07:32:33.510Z,69.20
2023-01-13T07:35:05.252Z,67.19
2023-01-13T07:37:35.646Z,67.55
2023-01-13T07:40:03.452Z,68.11
2023-01-13T07:42:48.238Z,67.22
2023-01-13T07:45:14.730Z,67.63
2023-01-13T07:47:41.241Z,68.30
2023-01-13T07:50:08.640Z,67.56
2023-01-13T07:52:35.157Z,68.53
2023-01-13T07:55:01.657Z,68.02
2023-01-13T07:57:28.223Z,67.07
2023-01-13T07:59:54.760Z,68.17
2023-01-13T08:02:21.736Z,68.17
2023-01-13T08:04:48.473Z,68.84
2023-01-13T08:07:14.964Z,67.95
2023-01-13T08:09:41.468Z,68.10
2023-01-13T08:12:27.568Z,68.77
2023-01-13T08:14:54.276Z,68.51
2023-01-13T08:17:20.981Z,69.06
2023-01-13T08:19:47.523Z,68.57
2023-01-13T08:22:14.054Z,69.11
2023-01-13T08:24:40.574Z,69.21
2023-01-13T08:27:07.157Z,68.38
2023-01-13T08:29:33.669Z,68.51
2023-01-13T08:32:00.140Z,68.35
2023-01-13T08:34:26.647Z,66.83
2023-01-13T08:36:53.212Z,66.69
2023-01-13T08:39:19.764Z,68.01
2023-01-13T08:41:55.305Z,67.67
2023-01-13T08:44:28.957Z,67.62
2023-01-13T08:46:55.683Z,67.80
2023-01-13T08:49:22.382Z,67.77
2023-01-13T08:51:50.045Z,68.16
2023-01-13T08:54:17.209Z,67.97
2023-01-13T08:56:44.128Z,68.60
2023-01-13T08:59:17.852Z,68.42
2023-01-13T09:01:44.579Z,68.78
2023-01-13T09:04:15.950Z,69.07
2023-01-13T09:06:42.463Z,69.23
2023-01-13T09:09:09.015Z,68.98
2023-01-13T09:11:55.819Z,68.86
2023-01-13T09:14:23.434Z,69.03
2023-01-13T09:16:49.952Z,69.29
2023-01-13T09:19:16.665Z,69.60
2023-01-13T09:21:43.165Z,70.12
2023-01-13T09:24:09.729Z,69.80
2023-01-13T09:26:36.972Z,69.64
2023-01-13T09:29:03.824Z,70.18
2023-01-13T09:31:34.297Z,70.08
2023-01-13T09:34:22.728Z,70.18
2023-01-13T09:36:49.375Z,70.66
2023-01-13T09:39:15.940Z,69.53
2023-01-13T09:42:06.694Z,69.88
2023-01-13T09:44:48.407Z,69.96
2023-01-13T09:47:46.025Z,69.93
2023-01-13T09:50:18.234Z,69.70
2023-01-13T09:52:44.745Z,69.02
2023-01-13T09:55:19.553Z,68.95
2023-01-13T09:57:46.011Z,68.78
2023-01-13T10:00:17.996Z,68.69
2023-01-13T10:03:02.794Z,69.19
2023-01-13T10:05:39.023Z,68.45
2023-01-13T10:08:10.885Z,68.26
2023-01-13T10:10:38.826Z,68.23
2023-01-13T10:13:30.769Z,68.24
2023-01-13T10:16:11.586Z,68.42
2023-01-13T10:19:02.989Z,68.33
2023-01-13T10:21:54.259Z,67.76
2023-01-13T10:24:26.590Z,67.40
2023-01-13T10:27:01.843Z,66.74
2023-01-13T10:29:29.102Z,67.01
2023-01-13T10:31:56.270Z,67.36
2023-01-13T10:34:23.869Z,66.07
2023-01-13T10:37:09.036Z,66.87
2023-01-13T10:39:43.419Z,67.24
2023-01-13T10:42:21.993Z,66.34
2023-01-13T10:44:57.094Z,66.62
2023-01-13T10:47:31.061Z,65.84
2023-01-13T10:50:03.481Z,65.71
2023-01-13T10:52:32.672Z,65.33
2023-01-13T10:55:01.055Z,66.11
2023-01-13T10:57:27.820Z,66.34
2023-01-13T10:59:56.326Z,66.52
2023-01-13T11:02:32.422Z,66.76
2023-01-13T11:05:26.775Z,65.33
2023-01-13T11:07:56.273Z,66.69
2023-01-13T11:10:27.524Z,66.97
2023-01-13T11:12:57.707Z,67.68
2023-01-13T11:15:31.724Z,69.42
2023-01-13T11:18:02.671Z,70.38
2023-01-13T11:20:41.190Z,72.39
2023-01-13T11:23:29.720Z,71.88
2023-01-13T11:26:16.411Z,72.84
2023-01-13T11:28:50.971Z,73.56
2023-01-13T11:31:31.178Z,73.16
2023-01-13T11:34:01.370Z,73.14
2023-01-13T11:36:37.740Z,72.55
2023-01-13T11:39:42.998Z,72.74
2023-01-13T11:42:27.821Z,73.89
2023-01-13T11:45:32.007Z,75.19
2023-01-13T11:47:59.699Z,76.38
2023-01-13T11:50:34.499Z,77.89
2023-01-13T11:53:18.785Z,79.55
2023-01-13T11:56:09.683Z,80.45
2023-01-13T11:59:12.286Z,81.94
2023-01-13T12:02:07.944Z,83.73
2023-01-13T12:04:53.427Z,84.50
2023-01-13T12:07:23.112Z,82.61
2023-01-13T12:10:13.356Z,84.17
2023-01-13T12:13:04.663Z,84.56
2023-01-13T12:15:51.623Z,84.41
2023-01-13T12:18:36.958Z,84.51
2023-01-13T12:21:09.409Z,85.55
2023-01-13T12:23:39.510Z,86.46
2023-01-13T12:26:16.584Z,84.13
2023-01-13T12:28:58.218Z,84.34
2023-01-13T12:31:25.311Z,85.99
2023-01-13T12:33:55.038Z,85.69
2023-01-13T12:36:29.304Z,86.17
2023-01-13T12:38:59.228Z,86.39
2023-01-13T12:42:01.075Z,86.75
2023-01-13T12:44:29.185Z,86.13
2023-01-13T12:46:57.670Z,86.87
2023-01-13T12:49:36.800Z,86.47
2023-01-13T12:52:14.282Z,86.26
2023-01-13T12:54:40.735Z,86.40
2023-01-13T12:57:16.170Z,85.08
2023-01-13T12:59:48.948Z,86.45
2023-01-13T13:02:15.844Z,86.73
2023-01-13T13:04:42.447Z,86.35
2023-01-13T13:07:10.529Z,87.00
2023-01-13T13:09:43.864Z,86.51
2023-01-13T13:13:00.210Z,87.39
2023-01-13T13:15:36.977Z,86.66
2023-01-13T13:18:28.244Z,85.70
2023-01-13T13:21:00.740Z,85.59
2023-01-13T13:23:52.955Z,87.59
2023-01-13T13:26:20.176Z,87.32
2023-01-13T13:29:08.122Z,87.75
2023-01-13T13:31:49.541Z,87.40
2023-01-13T13:34:21.659Z,86.68
2023-01-13T13:36:59.987Z,86.68
2023-01-13T13:39:46.296Z,86.78
2023-01-13T13:42:45.257Z,85.99
2023-01-13T13:45:39.980Z,86.98
2023-01-13T13:48:23.550Z,87.02
2023-01-13T13:50:55.018Z,87.04
2023-01-13T13:53:21.505Z,87.38
2023-01-13T13:55:59.803Z,87.54
2023-01-13T13:58:27.386Z,88.27
2023-01-13T14:00:54.288Z,87.65
2023-01-13T14:03:26.806Z,87.57
2023-01-13T14:06:04.150Z,88.36
2023-01-13T14:08:35.013Z,88.03
2023-01-13T14:11:01.593Z,87.09
2023-01-13T14:13:31.460Z,86.67
2023-01-13T14:16:05.027Z,86.96
2023-01-13T14:18:33.489Z,86.42
2023-01-13T14:21:00.706Z,86.65
2023-01-13T14:23:29.185Z,86.41
2023-01-13T14:25:55.777Z,86.78
2023-01-13T14:28:32.535Z,87.29
2023-01-13T14:30:59.105Z,85.58
2023-01-13T14:33:42.147Z,85.00
2023-01-13T14:36:11.530Z,86.00
2023-01-13T14:38:38.225Z,84.61
2023-01-13T14:41:26.398Z,84.39
2023-01-13T14:43:54.518Z,84.59
2023-01-13T14:46:23.188Z,85.35
2023-01-13T14:48:50.355Z,84.59
2023-01-13T14:51:24.703Z,84.23
2023-01-13T14:53:51.414Z,85.00
2023-01-13T14:56:37.995Z,85.60
2023-01-13T14:59:32.264Z,83.70
2023-01-13T15:01:58.901Z,84.54
2023-01-13T15:04:26.980Z,83.97
2023-01-13T15:06:55.404Z,83.28
2023-01-13T15:09:27.360Z,83.84
2023-01-13T15:11:54.302Z,83.69
2023-01-13T15:14:25.337Z,84.22
2023-01-13T15:16:51.889Z,85.31
2023-01-13T15:19:18.401Z,86.04
2023-01-13T15:21:44.963Z,85.98
2023-01-13T15:24:11.457Z,86.26
2023-01-13T15:26:38.043Z,85.66
2023-01-13T15:29:05.351Z,85.60
2023-01-13T15:31:31.937Z,86.08
2023-01-13T15:34:00.375Z,85.76
2023-01-13T15:36:31.316Z,85.94
2023-01-13T15:38:58.248Z,85.75
2023-01-13T15:41:43.787Z,85.99
2023-01-13T15:44:32.556Z,86.89
2023-01-13T15:47:00.161Z,87.60
2023-01-13T15:49:35.090Z,87.00
2023-01-13T15:52:05.581Z,87.14
2023-01-13T15:54:32.072Z,87.21
2023-01-13T15:56:58.627Z,86.85
2023-01-13T15:59:27.541Z,86.89
2023-01-13T16:01:54.014Z,86.50
2023-01-13T16:04:20.484Z,85.98
2023-01-13T16:06:47.620Z,86.41
2023-01-13T16:09:14.287Z,87.46
2023-01-13T16:11:40.849Z,86.84
2023-01-13T16:14:07.426Z,86.94
2023-01-13T16:16:33.994Z,86.95
2023-01-13T16:19:00.452Z,86.22
2023-01-13T16:21:26.969Z,86.24
2023-01-13T16:23:53.526Z,86.16
2023-01-13T16:26:27.754Z,86.75
2023-01-13T16:28:54.974Z,86.75
2023-01-13T16:31:31.745Z,86.77
2023-01-13T16:33:59.333Z,87.17
2023-01-13T16:36:25.813Z,87.53
2023-01-13T16:38:52.547Z,87.19
2023-01-13T16:41:20.048Z,87.00
2023-01-13T16:43:47.052Z,87.39
2023-01-13T16:46:27.926Z,87.52
2023-01-13T16:48:56.271Z,88.07
2023-01-13T16:51:23.162Z,88.21
2023-01-13T16:53:49.988Z,87.91
2023-01-13T16:56:23.517Z,87.98
2023-01-13T16:58:50.833Z,87.95
2023-01-13T17:01:23.092Z,87.58
2023-01-13T17:03:49.859Z,87.55
2023-01-13T17:06:17.326Z,87.85
2023-01-13T17:08:43.840Z,87.69
2023-01-13T17:11:10.550Z,86.94
2023-01-13T17:13:37.123Z,87.76
2023-01-13T17:16:03.692Z,87.08
2023-01-13T17:18:30.210Z,87.32
2023-01-13T17:20:58.701Z,87.64
2023-01-13T17:23:25.245Z,87.37
2023-01-13T17:25:54.609Z,87.13
2023-01-13T17:28:22.964Z,87.30
2023-01-13T17:30:49.464Z,87.09
2023-01-13T17:33:15.934Z,87.04
2023-01-13T17:35:42.504Z,87.25
2023-01-13T17:38:09.077Z,87.07
2023-01-13T17:40:36.800Z,87.07
2023-01-13T17:43:03.455Z,87.31
2023-01-13T17:45:29.989Z,87.25
2023-01-13T17:47:57.906Z,87.72
2023-01-13T17:50:24.826Z,87.24
2023-01-13T17:52:51.351Z,87.20
2023-01-13T17:55:17.812Z,86.96
2023-01-13T17:57:44.358Z,86.75
2023-01-13T18:00:12.365Z,86.92
2023-01-13T18:02:38.881Z,87.21
2023-01-13T18:05:05.751Z,87.36
2023-01-13T18:07:32.315Z,87.53
2023-01-13T18:09:58.848Z,88.09
2023-01-13T18:12:25.349Z,88.02
2023-01-13T18:14:51.840Z,88.22
2023-01-13T18:17:18.340Z,88.05
2023-01-13T18:20:03.462Z,88.64
2023-01-13T18:23:02.418Z,88.77
2023-01-13T18:25:47.733Z,88.51
2023-01-13T18:28:14.217Z,89.07
2023-01-13T18:30:40.773Z,88.83
2023-01-13T18:33:07.465Z,88.83
2023-01-13T18:35:33.940Z,88.50
2023-01-13T18:38:00.452Z,89.06
2023-01-13T18:40:27.011Z,89.32
2023-01-13T18:42:58.209Z,88.88
2023-01-13T18:45:26.934Z,88.17
2023-01-13T18:47:56.311Z,89.17
2023-01-13T18:50:23.191Z,89.86
2023-01-13T18:52:49.794Z,89.82
2023-01-13T18:55:16.383Z,90.04
2023-01-13T18:57:43.072Z,90.60
2023-01-13T19:00:10.802Z,90.50
2023-01-13T19:02:37.554Z,90.58
2023-01-13T19:05:04.246Z,91.63
2023-01-13T19:07:31.925Z,91.80
2023-01-13T19:09:59.582Z,90.62
2023-01-13T19:12:27.192Z,90.83
2023-01-13T19:14:54.600Z,90.63
2023-01-13T19:17:21.739Z,90.38
2023-01-13T19:19:50.787Z,89.61
2023-01-13T19:22:19.730Z,90.07
2023-01-13T19:24:46.411Z,90.03
2023-01-13T19:27:16.413Z,89.67
2023-01-13T19:29:48.779Z,89.68
2023-01-13T19:32:18.845Z,90.17
2023-01-13T19:34:46.740Z,89.91
2023-01-13T19:37:13.305Z,90.39
2023-01-13T19:39:39.861Z,90.43
2023-01-13T19:42:24.812Z,90.30
2023-01-13T19:45:09.884Z,90.27
2023-01-13T19:47:38.455Z,90.49
2023-01-13T19:50:07.958Z,90.36
2023-01-13T19:52:34.762Z,90.48
2023-01-13T19:55:01.925Z,90.40
2023-01-13T19:57:28.548Z,90.21
2023-01-13T19:59:55.449Z,90.58
2023-01-13T20:02:28.246Z,90.46
2023-01-13T20:04:56.053Z,90.23
2023-01-13T20:07:23.910Z,90.32
2023-01-13T20:09:51.076Z,90.13
2023-01-13T20:12:17.746Z,90.26
2023-01-13T20:14:45.158Z,89.91
2023-01-13T20:17:12.452Z,89.58
2023-01-13T20:19:38.994Z,89.15
2023-01-13T20:22:05.509Z,89.66
2023-01-13T20:24:32.043Z,89.26
2023-01-13T20:26:58.689Z,89.04
2023-01-13T20:29:25.189Z,89.12
2023-01-13T20:31:51.665Z,88.64
2023-01-13T20:34:21.081Z,89.21
2023-01-13T20:36:48.326Z,89.10
2023-01-13T20:39:19.716Z,88.50
2023-01-13T20:42:04.713Z,88.94
2023-01-13T20:44:31.255Z,88.23
2023-01-13T20:46:57.933Z,88.44
2023-01-13T20:49:25.136Z,87.56
2023-01-13T20:51:51.622Z,88.17
2023-01-13T20:54:18.277Z,87.95
2023-01-13T20:56:44.818Z,87.86
2023-01-13T20:59:11.368Z,88.37
2023-01-13T21:01:37.914Z,88.18
2023-01-13T21:04:06.017Z,88.47
2023-01-13T21:06:32.742Z,88.70
2023-01-13T21:08:59.303Z,88.20
2023-01-13T21:11:45.372Z,88.47
2023-01-13T21:14:37.600Z,87.15
2023-01-13T21:17:04.389Z,86.23
2023-01-13T21:19:30.909Z,86.00
2023-01-13T21:21:57.391Z,85.96
2023-01-13T21:24:24.749Z,85.48
2023-01-13T21:26:57.918Z,86.09
2023-01-13T21:29:24.446Z,86.21
2023-01-13T21:31:50.948Z,85.41
2023-01-13T21:34:17.542Z,85.79
2023-01-13T21:36:44.073Z,85.43
2023-01-13T21:39:10.617Z,85.59
2023-01-13T21:41:55.689Z,84.70
2023-01-13T21:44:40.890Z,84.28
2023-01-13T21:47:36.140Z,84.69
2023-01-13T21:50:03.530Z,84.43
2023-01-13T21:52:29.995Z,84.78
2023-01-13T21:55:15.028Z,85.00
2023-01-13T21:57:44.878Z,84.91
2023-01-13T22:00:11.779Z,84.88
2023-01-13T22:02:38.625Z,84.73
2023-01-13T22:05:06.399Z,84.82
2023-01-13T22:07:34.339Z,85.14
2023-01-13T22:10:01.281Z,85.01
2023-01-13T22:12:29.406Z,84.75
2023-01-13T22:14:55.965Z,85.06
2023-01-13T22:17:23.491Z,85.71
2023-01-13T22:19:51.300Z,85.71
2023-01-13T22:22:18.827Z,85.81
2023-01-13T22:24:47.683Z,86.06
2023-01-13T22:27:21.188Z,85.91
2023-01-13T22:29:48.107Z,86.37
2023-01-13T22:32:15.244Z,85.91
2023-01-13T22:34:41.984Z,85.88
2023-01-13T22:37:09.287Z,85.17
2023-01-13T22:39:35.891Z,85.38
2023-01-13T22:42:02.424Z,85.50
2023-01-13T22:44:28.966Z,85.35
2023-01-13T22:46:55.529Z,84.79
2023-01-13T22:49:22.922Z,84.83
2023-01-13T22:51:49.409Z,85.04
2023-01-13T22:54:17.022Z,85.23
2023-01-13T22:56:43.507Z,85.45
2023-01-13T22:59:11.854Z,85.65
2023-01-13T23:01:38.660Z,85.25
2023-01-13T23:04:05.337Z,85.45
2023-01-13T23:06:32.731Z,85.37
2023-01-13T23:08:59.291Z,85.74
2023-01-13T23:11:27.336Z,86.36
2023-01-13T23:13:59.390Z,86.79
2023-01-13T23:16:26.039Z,87.21
2023-01-13T23:18:52.584Z,86.83
2023-01-13T23:21:23.762Z,87.12
2023-01-13T23:23:50.408Z,87.21
2023-01-13T23:26:17.180Z,87.40
2023-01-13T23:28:43.754Z,87.56
2023-01-13T23:31:12.631Z,87.07
2023-01-13T23:33:41.111Z,87.12
2023-01-13T23:36:08.096Z,86.14
2023-01-13T23:38:34.655Z,85.98
2023-01-13T23:41:01.170Z,85.03
2023-01-13T23:43:27.693Z,83.97
2023-01-13T23:46:04.780Z,84.17
2023-01-13T23:48:32.804Z,83.81
2023-01-13T23:51:07.458Z,83.37
2023-01-13T23:53:39.121Z,83.87
2023-01-13T23:56:07.557Z,83.38
2023-01-13T23:58:34.760Z,83.96
